Time;durP1;ratioP1;P1;durP2;ratioP2;P2;SDS_P1;SDS_P2;PMS_P1;PMS_P2;Temp;Humidity;BMP_temperature;BMP_pressure;BME280_temperature;BME280_humidity;BME280_pressure;Samples;Min_cycle;Max_cycle;Signal;HPM_P1;HPM_P2
2022/04/11 00:02:12;;;;;;;;;5.25;4.50;;;;;;;;5093296;27;45578;-70
2022/04/11 00:04:37;;;;;;;;;4.00;4.00;;;;;;;;5084968;27;45434;-70
2022/04/11 00:07:02;;;;;;;;;4.00;4.00;;;;;;;;5095186;27;45286;-70
2022/04/11 00:09:28;;;;;;;;;4.00;4.00;;;;;;;;5094533;27;45193;-70
2022/04/11 00:11:53;;;;;;;;;6.00;4.00;;;;;;;;5094384;27;45342;-70
2022/04/11 00:14:18;;;;;;;;;4.00;4.00;;;;;;;;5094502;27;45425;-69
2022/04/11 00:16:44;;;;;;;;;2.75;2.75;;;;;;;;5095693;27;45288;-70
2022/04/11 00:19:09;;;;;;;;;4.50;4.00;;;;;;;;5096824;27;47298;-70
2022/04/11 00:21:35;;;;;;;;;4.00;4.00;;;;;;;;5094019;27;46422;-69
2022/04/11 00:24:00;;;;;;;;;5.50;4.25;;;;;;;;5094000;27;45536;-70
2022/04/11 00:26:25;;;;;;;;;5.00;4.00;;;;;;;;5092716;27;45487;-70
2022/04/11 00:28:51;;;;;;;;;4.00;4.00;;;;;;;;5094250;27;45777;-70
2022/04/11 00:31:16;;;;;;;;;2.00;2.00;;;;;;;;5096424;27;46508;-70
2022/04/11 00:33:41;;;;;;;;;5.25;4.00;;;;;;;;5076740;27;45678;-70
2022/04/11 00:36:06;;;;;;;;;5.00;4.00;;;;;;;;5091697;27;45479;-70
2022/04/11 00:38:32;;;;;;;;;2.75;2.75;;;;;;;;5091901;27;45515;-69
2022/04/11 00:40:57;;;;;;;;;3.50;3.50;;;;;;;;5093871;27;46172;-70
2022/04/11 00:43:31;;;;;;;;;8.00;3.50;;;;;;;;5084448;27;45455;-70
2022/04/11 00:45:57;;;;;;;;;2.00;2.00;;;;;;;;5093818;27;47647;-69
2022/04/11 00:48:22;;;;;;;;;3.00;3.00;;;;;;;;5093905;27;45456;-70
2022/04/11 00:50:47;;;;;;;;;3.50;3.00;;;;;;;;5093760;27;45423;-70
2022/04/11 00:53:12;;;;;;;;;5.00;3.50;;;;;;;;5094267;27;45545;-70
2022/04/11 00:55:38;;;;;;;;;3.25;3.00;;;;;;;;5094639;27;45383;-70
2022/04/11 00:58:04;;;;;;;;;3.75;3.25;;;;;;;;5095402;27;45350;-70
2022/04/11 01:00:30;;;;;;;;;3.00;3.00;;;;;;;;5093387;27;46536;-70
2022/04/11 01:02:55;;;;;;;;;5.00;4.00;;;;;;;;5093762;27;45404;-70
2022/04/11 01:05:20;;;;;;;;;6.00;3.75;;;;;;;;5093297;27;45405;-70
2022/04/11 01:07:45;;;;;;;;;3.00;3.00;;;;;;;;5093668;27;45361;-69
2022/04/11 01:10:11;;;;;;;;;4.25;3.00;;;;;;;;5093718;27;46362;-70
2022/04/11 01:12:36;;;;;;;;;2.50;2.50;;;;;;;;5075422;27;45541;-70
2022/04/11 01:15:02;;;;;;;;;4.50;2.50;;;;;;;;5073130;28;45437;-70
2022/04/11 01:17:34;;;;;;;;;3.00;3.00;;;;;;;;5055180;28;45470;-70
2022/04/11 01:19:59;;;;;;;;;2.00;2.00;;;;;;;;5057489;28;46102;-70
2022/04/11 01:22:24;;;;;;;;;3.00;3.00;;;;;;;;5075507;28;45368;-69
2022/04/11 01:24:49;;;;;;;;;2.50;2.50;;;;;;;;5070448;28;45598;-70
2022/04/11 01:27:15;;;;;;;;;2.00;2.00;;;;;;;;5073070;28;45419;-70
2022/04/11 01:29:40;;;;;;;;;2.00;2.00;;;;;;;;5071245;28;46679;-70
2022/04/11 01:32:06;;;;;;;;;3.00;3.00;;;;;;;;5073693;28;45907;-69
2022/04/11 01:34:31;;;;;;;;;3.00;3.00;;;;;;;;5074182;28;45360;-70
2022/04/11 01:36:57;;;;;;;;;3.00;3.00;;;;;;;;5073034;28;45664;-70
2022/04/11 01:39:22;;;;;;;;;3.00;3.00;;;;;;;;5075659;28;46092;-70
2022/04/11 01:41:49;;;;;;;;;3.00;3.00;;;;;;;;5074100;28;45295;-69
2022/04/11 01:44:14;;;;;;;;;2.50;2.25;;;;;;;;5076502;28;45478;-70
2022/04/11 01:46:39;;;;;;;;;2.00;2.00;;;;;;;;5077642;28;45434;-70
2022/04/11 01:49:04;;;;;;;;;3.00;3.00;;;;;;;;5075679;28;46279;-69
2022/04/11 01:51:29;;;;;;;;;3.00;3.00;;;;;;;;5074568;28;45464;-70
2022/04/11 01:53:55;;;;;;;;;2.00;2.00;;;;;;;;5075689;28;45297;-69
2022/04/11 01:56:20;;;;;;;;;4.25;4.25;;;;;;;;5073866;28;45293;-69
2022/04/11 01:58:45;;;;;;;;;4.25;3.00;;;;;;;;5075631;28;45536;-70
2022/04/11 02:01:15;;;;;;;;;4.00;3.00;;;;;;;;5086641;27;45260;-69
2022/04/11 02:03:40;;;;;;;;;4.00;2.75;;;;;;;;5078096;27;45304;-70
2022/04/11 02:06:05;;;;;;;;;3.75;3.75;;;;;;;;5073788;28;45314;-69
2022/04/11 02:08:31;;;;;;;;;2.00;1.75;;;;;;;;5073105;28;45653;-70
2022/04/11 02:10:56;;;;;;;;;2.00;2.00;;;;;;;;5080177;27;45739;-69
2022/04/11 02:13:21;;;;;;;;;3.25;3.25;;;;;;;;5098649;27;45272;-70
2022/04/11 02:15:46;;;;;;;;;3.00;3.00;;;;;;;;5096338;27;45257;-70
2022/04/11 02:18:12;;;;;;;;;3.00;3.00;;;;;;;;5096022;27;45573;-70
2022/04/11 02:20:38;;;;;;;;;2.50;2.50;;;;;;;;5095949;27;45680;-70
2022/04/11 02:23:03;;;;;;;;;3.50;3.50;;;;;;;;5095913;27;45448;-70
2022/04/11 02:25:31;;;;;;;;;2.00;2.00;;;;;;;;5097847;27;45346;-70
2022/04/11 02:27:59;;;;;;;;;2.00;2.00;;;;;;;;5095730;27;45381;-69
2022/04/11 02:30:26;;;;;;;;;3.00;3.00;;;;;;;;5094215;27;45362;-70
2022/04/11 02:32:51;;;;;;;;;3.00;3.00;;;;;;;;5095979;27;45433;-69
2022/04/11 02:35:17;;;;;;;;;4.00;2.00;;;;;;;;5095891;27;45503;-70
2022/04/11 02:37:44;;;;;;;;;3.00;2.00;;;;;;;;5095568;27;46489;-69
2022/04/11 02:40:10;;;;;;;;;3.00;3.00;;;;;;;;5097837;27;45226;-70
2022/04/11 02:42:35;;;;;;;;;5.00;4.00;;;;;;;;5097491;27;45403;-70
2022/04/11 02:45:01;;;;;;;;;2.50;2.00;;;;;;;;5096574;27;45355;-70
2022/04/11 02:47:27;;;;;;;;;2.00;2.00;;;;;;;;5097187;27;46379;-70
2022/04/11 02:49:52;;;;;;;;;3.50;3.50;;;;;;;;5094806;27;45556;-70
2022/04/11 02:52:18;;;;;;;;;2.50;2.50;;;;;;;;5097130;27;45357;-70
2022/04/11 02:54:43;;;;;;;;;3.00;3.00;;;;;;;;5093816;27;45407;-69
2022/04/11 02:57:08;;;;;;;;;2.00;2.00;;;;;;;;5095600;27;45473;-69
2022/04/11 02:59:34;;;;;;;;;3.75;3.00;;;;;;;;5078207;27;45457;-70
2022/04/11 03:02:00;;;;;;;;;2.00;2.00;;;;;;;;5095125;27;45291;-70
2022/04/11 03:04:26;;;;;;;;;3.25;3.25;;;;;;;;5097824;27;45318;-70
2022/04/11 03:06:51;;;;;;;;;2.00;2.00;;;;;;;;5093982;27;46555;-70
2022/04/11 03:09:16;;;;;;;;;1.50;1.50;;;;;;;;5095268;27;45518;-70
2022/04/11 03:11:42;;;;;;;;;1.25;1.25;;;;;;;;5093717;27;45327;-70
2022/04/11 03:14:07;;;;;;;;;3.00;3.00;;;;;;;;5095618;27;45520;-69
2022/04/11 03:16:34;;;;;;;;;2.25;2.25;;;;;;;;5096739;27;46255;-70
2022/04/11 03:18:59;;;;;;;;;4.00;3.00;;;;;;;;5096398;27;45427;-70
2022/04/11 03:21:24;;;;;;;;;2.00;2.00;;;;;;;;5093592;27;45427;-70
2022/04/11 03:23:49;;;;;;;;;4.00;4.00;;;;;;;;5095541;27;45401;-70
2022/04/11 03:26:14;;;;;;;;;2.50;2.50;;;;;;;;5096847;27;46266;-70
2022/04/11 03:28:40;;;;;;;;;3.25;2.25;;;;;;;;5097022;27;45648;-70
2022/04/11 03:31:05;;;;;;;;;2.00;2.00;;;;;;;;5096971;27;45672;-70
2022/04/11 03:33:30;;;;;;;;;2.50;2.50;;;;;;;;5096815;27;45505;-70
2022/04/11 03:35:55;;;;;;;;;3.00;3.00;;;;;;;;5094668;27;45578;-69
2022/04/11 03:38:20;;;;;;;;;2.00;2.00;;;;;;;;5095152;27;45432;-69
2022/04/11 03:40:46;;;;;;;;;2.00;2.00;;;;;;;;5094677;27;45249;-70
2022/04/11 03:43:11;;;;;;;;;2.00;2.00;;;;;;;;5095600;27;45451;-70
2022/04/11 03:45:36;;;;;;;;;2.75;2.75;;;;;;;;5092579;27;46379;-69
2022/04/11 03:48:02;;;;;;;;;3.00;3.00;;;;;;;;5092194;27;45521;-70
2022/04/11 03:50:27;;;;;;;;;2.00;2.00;;;;;;;;5093226;27;45518;-69
2022/04/11 03:52:53;;;;;;;;;2.00;2.00;;;;;;;;5093826;27;45515;-70
2022/04/11 03:55:18;;;;;;;;;3.25;3.25;;;;;;;;5096334;27;45438;-69
2022/04/11 03:57:43;;;;;;;;;2.00;2.00;;;;;;;;5094396;27;45478;-70
2022/04/11 04:00:09;;;;;;;;;4.00;3.00;;;;;;;;5092476;27;45475;-70
2022/04/11 04:02:34;;;;;;;;;3.00;2.50;;;;;;;;5094385;27;45653;-70
2022/04/11 04:05:00;;;;;;;;;3.00;3.00;;;;;;;;5093136;27;45534;-70
2022/04/11 04:07:25;;;;;;;;;2.25;2.00;;;;;;;;5096918;27;45363;-69
2022/04/11 04:09:50;;;;;;;;;3.00;3.00;;;;;;;;5094236;27;45433;-69
2022/04/11 04:12:19;;;;;;;;;2.00;2.00;;;;;;;;5094062;27;45331;-70
2022/04/11 04:14:45;;;;;;;;;1.50;1.50;;;;;;;;5093112;27;47156;-69
2022/04/11 04:17:10;;;;;;;;;2.00;2.00;;;;;;;;5096138;27;45453;-70
2022/04/11 04:19:35;;;;;;;;;5.00;2.25;;;;;;;;5094421;27;45518;-70
2022/04/11 04:22:00;;;;;;;;;1.50;1.50;;;;;;;;5096535;27;45373;-70
2022/04/11 04:24:26;;;;;;;;;3.00;3.00;;;;;;;;5093999;27;46488;-70
2022/04/11 04:26:51;;;;;;;;;1.75;1.75;;;;;;;;5092784;27;45292;-69
2022/04/11 04:29:16;;;;;;;;;2.00;2.00;;;;;;;;5094518;27;45249;-69
2022/04/11 04:31:42;;;;;;;;;2.25;1.50;;;;;;;;5094730;27;45452;-69
2022/04/11 04:34:07;;;;;;;;;3.00;3.00;;;;;;;;5093588;27;46530;-70
2022/04/11 04:36:32;;;;;;;;;3.00;3.00;;;;;;;;5094100;27;45504;-69
2022/04/11 04:38:58;;;;;;;;;2.00;2.00;;;;;;;;5094119;27;45326;-69
2022/04/11 04:41:23;;;;;;;;;3.50;3.50;;;;;;;;5093225;27;45668;-69
2022/04/11 04:43:48;;;;;;;;;2.00;2.00;;;;;;;;5094315;27;46458;-70
2022/04/11 04:46:13;;;;;;;;;4.00;2.75;;;;;;;;5096600;27;45281;-70
2022/04/11 04:48:38;;;;;;;;;2.00;2.00;;;;;;;;5093773;27;45293;-70
2022/04/11 04:51:03;;;;;;;;;1.00;1.00;;;;;;;;5093740;27;45369;-69
2022/04/11 04:53:29;;;;;;;;;2.00;2.00;;;;;;;;5092689;27;45404;-70
2022/04/11 04:55:54;;;;;;;;;3.00;2.00;;;;;;;;5093877;27;45358;-70
2022/04/11 04:58:19;;;;;;;;;1.00;1.00;;;;;;;;5096091;27;45509;-70
2022/04/11 05:00:44;;;;;;;;;3.00;2.00;;;;;;;;5095239;27;45313;-70
2022/04/11 05:03:09;;;;;;;;;3.75;1.75;;;;;;;;5095007;27;46382;-70
2022/04/11 05:05:35;;;;;;;;;2.00;2.00;;;;;;;;5093533;27;45299;-69
2022/04/11 05:08:00;;;;;;;;;1.00;1.00;;;;;;;;5095073;27;45352;-69
2022/04/11 05:10:25;;;;;;;;;1.50;1.50;;;;;;;;5096068;27;45325;-70
2022/04/11 05:12:51;;;;;;;;;2.00;2.00;;;;;;;;5095449;27;46370;-70
2022/04/11 05:15:16;;;;;;;;;2.75;2.25;;;;;;;;5096943;27;45383;-70
2022/04/11 05:17:41;;;;;;;;;2.00;2.00;;;;;;;;5097077;27;45414;-70
2022/04/11 05:20:07;;;;;;;;;1.50;1.50;;;;;;;;5095685;27;45358;-69
2022/04/11 05:22:33;;;;;;;;;1.25;1.25;;;;;;;;5097187;27;45554;-75
2022/04/11 05:24:58;;;;;;;;;1.00;1.00;;;;;;;;5093872;27;45334;-69
2022/04/11 05:27:24;;;;;;;;;2.00;2.00;;;;;;;;5075869;27;45265;-69
2022/04/11 05:29:49;;;;;;;;;1.25;1.25;;;;;;;;5090660;27;45452;-68
2022/04/11 05:32:14;;;;;;;;;2.00;2.00;;;;;;;;5092610;27;46340;-69
2022/04/11 05:34:39;;;;;;;;;2.00;2.00;;;;;;;;5090297;27;45336;-72
2022/04/11 05:37:04;;;;;;;;;1.25;1.25;;;;;;;;5093892;27;45311;-71
2022/04/11 05:39:30;;;;;;;;;1.75;1.75;;;;;;;;5092154;27;45572;-74
2022/04/11 05:41:55;;;;;;;;;2.00;2.00;;;;;;;;5090654;27;46114;-73
2022/04/11 05:44:20;;;;;;;;;3.00;2.00;;;;;;;;5089045;27;45452;-73
2022/04/11 05:46:52;;;;;;;;;2.00;1.50;;;;;;;;5089185;27;45647;-70
2022/04/11 05:49:17;;;;;;;;;1.75;1.75;;;;;;;;5088551;27;45526;-70
2022/04/11 05:51:43;;;;;;;;;1.75;1.75;;;;;;;;5091646;27;45551;-69
2022/04/11 05:54:08;;;;;;;;;2.00;2.00;;;;;;;;5091313;27;45414;-69
2022/04/11 05:56:33;;;;;;;;;3.00;1.00;;;;;;;;5093170;27;45436;-69
2022/04/11 05:58:58;;;;;;;;;2.00;2.00;;;;;;;;5094292;27;45505;-69
2022/04/11 06:01:23;;;;;;;;;2.00;2.00;;;;;;;;5090300;27;45409;-68
2022/04/11 06:03:49;;;;;;;;;1.00;1.00;;;;;;;;5088750;27;45232;-68
2022/04/11 06:06:15;;;;;;;;;1.00;1.00;;;;;;;;5094254;27;45362;-69
2022/04/11 06:08:40;;;;;;;;;1.00;1.00;;;;;;;;5091135;27;45479;-69
2022/04/11 06:11:05;;;;;;;;;1.00;1.00;;;;;;;;5090334;27;46962;-69
2022/04/11 06:13:30;;;;;;;;;2.00;2.00;;;;;;;;5093280;27;45382;-71
2022/04/11 06:15:56;;;;;;;;;2.50;2.00;;;;;;;;5096817;27;45409;-68
2022/04/11 06:18:21;;;;;;;;;1.25;1.25;;;;;;;;5095920;27;45429;-69
2022/04/11 06:20:47;;;;;;;;;2.00;1.00;;;;;;;;5096088;27;45369;-69
2022/04/11 06:23:12;;;;;;;;;1.00;1.00;;;;;;;;5093833;27;45577;-70
2022/04/11 06:25:37;;;;;;;;;2.00;2.00;;;;;;;;5096636;27;45319;-71
2022/04/11 06:28:02;;;;;;;;;2.75;1.00;;;;;;;;5097452;27;45879;-68
2022/04/11 06:30:28;;;;;;;;;2.50;2.00;;;;;;;;5096177;27;46249;-68
2022/04/11 06:32:53;;;;;;;;;3.50;2.00;;;;;;;;5079236;27;45570;-68
2022/04/11 06:35:18;;;;;;;;;1.00;1.00;;;;;;;;5098079;27;45488;-68
2022/04/11 06:37:43;;;;;;;;;2.50;2.50;;;;;;;;5097069;27;45287;-68
2022/04/11 06:40:09;;;;;;;;;1.00;1.00;;;;;;;;5097820;27;45408;-68
2022/04/11 06:42:34;;;;;;;;;3.00;2.00;;;;;;;;5095627;27;45332;-68
2022/04/11 06:44:59;;;;;;;;;2.25;2.25;;;;;;;;5095792;27;45477;-68
2022/04/11 06:47:25;;;;;;;;;1.50;1.50;;;;;;;;5095946;27;45427;-68
2022/04/11 06:49:50;;;;;;;;;1.00;1.00;;;;;;;;5095269;27;46297;-68
2022/04/11 06:52:15;;;;;;;;;1.00;1.00;;;;;;;;5096511;27;45396;-68
2022/04/11 06:54:40;;;;;;;;;3.00;1.75;;;;;;;;5095968;27;45351;-68
2022/04/11 06:57:06;;;;;;;;;2.00;1.50;;;;;;;;5094205;27;45452;-68
2022/04/11 06:59:31;;;;;;;;;2.25;1.75;;;;;;;;5095239;27;45415;-68
2022/04/11 07:01:56;;;;;;;;;1.00;1.00;;;;;;;;5095855;27;45405;-68
2022/04/11 07:04:22;;;;;;;;;2.00;2.00;;;;;;;;5097635;27;45325;-68
2022/04/11 07:06:47;;;;;;;;;1.25;1.00;;;;;;;;5095611;27;45266;-69
2022/04/11 07:09:12;;;;;;;;;1.00;1.00;;;;;;;;5094826;27;46247;-69
2022/04/11 07:11:37;;;;;;;;;1.00;1.00;;;;;;;;5095033;27;45466;-68
2022/04/11 07:14:03;;;;;;;;;2.00;2.00;;;;;;;;5095641;27;45362;-69
2022/04/11 07:16:28;;;;;;;;;2.00;2.00;;;;;;;;5097346;27;45469;-69
2022/04/11 07:18:54;;;;;;;;;1.00;1.00;;;;;;;;5095799;27;46407;-69
2022/04/11 07:21:19;;;;;;;;;2.00;1.50;;;;;;;;5096787;27;45281;-69
2022/04/11 07:23:44;;;;;;;;;1.75;1.75;;;;;;;;5097023;27;45339;-68
2022/04/11 07:26:09;;;;;;;;;1.50;1.25;;;;;;;;5096119;27;45580;-68
2022/04/11 07:28:35;;;;;;;;;1.00;1.00;;;;;;;;5095524;27;46533;-68
2022/04/11 07:31:00;;;;;;;;;2.25;2.25;;;;;;;;5095907;27;45319;-68
2022/04/11 07:33:25;;;;;;;;;2.00;2.00;;;;;;;;5093256;27;45669;-68
2022/04/11 07:35:50;;;;;;;;;2.00;2.00;;;;;;;;5072861;27;45583;-69
2022/04/11 07:38:15;;;;;;;;;1.75;1.25;;;;;;;;5094920;27;45490;-68
2022/04/11 07:40:41;;;;;;;;;0.75;0.75;;;;;;;;5094861;27;45343;-68
2022/04/11 07:43:06;;;;;;;;;2.50;1.50;;;;;;;;5094559;27;45358;-68
2022/04/11 07:45:31;;;;;;;;;1.00;1.00;;;;;;;;5093540;27;45461;-67
2022/04/11 07:47:56;;;;;;;;;1.50;1.50;;;;;;;;5095916;27;45423;-69
2022/04/11 07:50:22;;;;;;;;;1.00;1.00;;;;;;;;5093587;27;45409;-68
2022/04/11 07:52:47;;;;;;;;;2.00;0.75;;;;;;;;5094987;27;45448;-68
2022/04/11 07:55:15;;;;;;;;;2.00;2.00;;;;;;;;5090682;27;45477;-68
2022/04/11 07:57:40;;;;;;;;;3.00;2.00;;;;;;;;5092652;27;45543;-68
2022/04/11 08:00:06;;;;;;;;;2.00;2.00;;;;;;;;5094327;27;45431;-68
2022/04/11 08:02:32;;;;;;;;;3.00;1.00;;;;;;;;5094593;27;45408;-68
2022/04/11 08:05:00;;;;;;;;;1.00;1.00;;;;;;;;5095051;27;45490;-68
2022/04/11 08:07:25;;;;;;;;;3.50;1.75;;;;;;;;5092735;27;46597;-68
2022/04/11 08:09:50;;;;;;;;;2.00;2.00;;;;;;;;5094780;27;45474;-69
2022/04/11 08:12:17;;;;;;;;;1.00;1.00;;;;;;;;5075607;27;45466;-69
2022/04/11 08:14:42;;;;;;;;;2.00;2.00;;;;;;;;5094145;27;45531;-68
2022/04/11 08:17:08;;;;;;;;;1.00;1.00;;;;;;;;5094566;27;45472;-69
2022/04/11 08:19:33;;;;;;;;;2.00;2.00;;;;;;;;5077308;27;46027;-69
2022/04/11 08:21:58;;;;;;;;;1.25;1.25;;;;;;;;5076856;27;45492;-69
2022/04/11 08:24:23;;;;;;;;;2.00;2.00;;;;;;;;5094329;27;45465;-69
2022/04/11 08:26:48;;;;;;;;;1.00;1.00;;;;;;;;5092757;27;45426;-68
2022/04/11 08:29:14;;;;;;;;;1.25;1.00;;;;;;;;5086174;27;45476;-68
2022/04/11 08:31:39;;;;;;;;;2.00;2.00;;;;;;;;5095060;27;45355;-68
2022/04/11 08:34:04;;;;;;;;;3.25;2.00;;;;;;;;5095576;27;45301;-68
2022/04/11 08:36:30;;;;;;;;;1.00;1.00;;;;;;;;5094172;27;47481;-68
2022/04/11 08:38:55;;;;;;;;;1.00;1.00;;;;;;;;5091626;27;45489;-68
2022/04/11 08:41:21;;;;;;;;;3.00;1.00;;;;;;;;5094124;27;45321;-69
2022/04/11 08:43:46;;;;;;;;;2.00;2.00;;;;;;;;5094221;27;46912;-68
2022/04/11 08:46:14;;;;;;;;;1.00;1.00;;;;;;;;5096065;27;46403;-69
2022/04/11 08:48:41;;;;;;;;;0.25;0.25;;;;;;;;5092870;27;45321;-69
2022/04/11 08:51:07;;;;;;;;;2.00;2.00;;;;;;;;5093794;27;45504;-68
2022/04/11 08:53:32;;;;;;;;;2.00;1.00;;;;;;;;5091898;27;45513;-69
2022/04/11 08:55:58;;;;;;;;;2.50;1.50;;;;;;;;5094055;27;46208;-69
2022/04/11 08:58:23;;;;;;;;;1.50;1.50;;;;;;;;5095916;27;46103;-69
2022/04/11 09:00:48;;;;;;;;;2.00;2.00;;;;;;;;5090727;27;45313;-69
2022/04/11 09:03:13;;;;;;;;;1.00;1.00;;;;;;;;5085806;27;45601;-69
2022/04/11 09:05:39;;;;;;;;;1.00;1.00;;;;;;;;5091074;27;45629;-69
2022/04/11 09:08:04;;;;;;;;;2.50;1.00;;;;;;;;5091204;27;45400;-69
2022/04/11 09:10:32;;;;;;;;;1.00;1.00;;;;;;;;5095220;27;45699;-69
2022/04/11 09:12:58;;;;;;;;;1.75;1.00;;;;;;;;5093014;27;45332;-69
2022/04/11 09:15:24;;;;;;;;;1.00;1.00;;;;;;;;5090946;27;45630;-68
2022/04/11 09:17:51;;;;;;;;;1.75;1.75;;;;;;;;5093413;27;45510;-68
2022/04/11 09:20:18;;;;;;;;;0.75;0.00;;;;;;;;5093634;27;45208;-68
2022/04/11 09:22:44;;;;;;;;;1.00;1.00;;;;;;;;5094277;27;45299;-69
2022/04/11 09:25:13;;;;;;;;;2.00;1.25;;;;;;;;5093509;27;46164;-69
2022/04/11 09:27:39;;;;;;;;;2.25;1.50;;;;;;;;5093307;27;45349;-68
2022/04/11 09:30:17;;;;;;;;;2.75;1.25;;;;;;;;5093567;27;45341;-68
2022/04/11 09:32:51;;;;;;;;;2.00;2.00;;;;;;;;5093367;27;45290;-68
2022/04/11 09:35:20;;;;;;;;;2.00;1.00;;;;;;;;5093279;27;46413;-69
2022/04/11 09:37:45;;;;;;;;;1.00;1.00;;;;;;;;5092787;27;45328;-68
2022/04/11 09:40:10;;;;;;;;;0.75;0.75;;;;;;;;5095228;27;45440;-68
2022/04/11 09:42:36;;;;;;;;;1.00;1.00;;;;;;;;5091720;27;45379;-69
2022/04/11 09:45:01;;;;;;;;;3.00;2.00;;;;;;;;5093038;27;45401;-69
2022/04/11 09:47:26;;;;;;;;;2.25;2.25;;;;;;;;5093242;27;45386;-68
2022/04/11 09:49:52;;;;;;;;;4.00;4.00;;;;;;;;5093294;27;45336;-69
2022/04/11 09:52:18;;;;;;;;;1.50;1.25;;;;;;;;5095077;27;45537;-68
2022/04/11 09:54:57;;;;;;;;;1.00;1.00;;;;;;;;5090656;27;45436;-68
2022/04/11 09:57:26;;;;;;;;;1.00;1.00;;;;;;;;5092941;27;45343;-68
2022/04/11 09:59:52;;;;;;;;;2.75;1.75;;;;;;;;5095929;27;45371;-68
2022/04/11 10:02:18;;;;;;;;;1.50;1.00;;;;;;;;5094441;27;45407;-68
2022/04/11 10:04:43;;;;;;;;;1.00;1.00;;;;;;;;5097376;27;46098;-69
2022/04/11 10:07:11;;;;;;;;;1.00;1.00;;;;;;;;5095753;27;45395;-68
2022/04/11 10:09:40;;;;;;;;;1.00;1.00;;;;;;;;5094654;27;45290;-69
2022/04/11 10:12:06;;;;;;;;;1.00;1.00;;;;;;;;5093831;27;45406;-68
2022/04/11 10:14:31;;;;;;;;;1.00;1.00;;;;;;;;5095823;27;45457;-68
2022/04/11 10:17:00;;;;;;;;;2.00;1.00;;;;;;;;5078614;27;45355;-69
2022/04/11 10:19:29;;;;;;;;;1.00;1.00;;;;;;;;5094036;27;45292;-69
2022/04/11 10:21:56;;;;;;;;;1.25;1.25;;;;;;;;5095699;27;45322;-68
2022/04/11 10:24:34;;;;;;;;;1.00;1.00;;;;;;;;5093902;27;45447;-69
2022/04/11 10:27:20;;;;;;;;;2.00;2.00;;;;;;;;5095796;27;45363;-69
2022/04/11 10:29:46;;;;;;;;;1.00;1.00;;;;;;;;5096001;27;45611;-69
2022/04/11 10:32:20;;;;;;;;;2.75;2.75;;;;;;;;5094897;27;45607;-68
2022/04/11 10:34:51;;;;;;;;;1.75;1.75;;;;;;;;5095374;27;46638;-68
2022/04/11 10:37:18;;;;;;;;;1.00;1.00;;;;;;;;5098087;27;45347;-69
2022/04/11 10:39:44;;;;;;;;;1.00;1.00;;;;;;;;5095979;27;45414;-69
2022/04/11 10:42:10;;;;;;;;;2.00;2.00;;;;;;;;5095904;27;45411;-69
2022/04/11 10:44:45;;;;;;;;;1.00;1.00;;;;;;;;5087903;27;46004;-69
2022/04/11 10:47:18;;;;;;;;;1.75;1.75;;;;;;;;5097004;27;45507;-68
2022/04/11 10:49:49;;;;;;;;;3.00;2.00;;;;;;;;5095399;27;45280;-69
2022/04/11 10:52:31;;;;;;;;;2.00;1.00;;;;;;;;5096380;27;45422;-68
2022/04/11 10:55:03;;;;;;;;;1.75;1.00;;;;;;;;5094479;27;46598;-68
2022/04/11 10:57:32;;;;;;;;;0.75;0.75;;;;;;;;5093293;27;45556;-69
2022/04/11 11:00:21;;;;;;;;;2.00;2.00;;;;;;;;5093399;27;45386;-68
2022/04/11 11:02:57;;;;;;;;;1.00;1.00;;;;;;;;5079456;27;45414;-68
2022/04/11 11:05:39;;;;;;;;;3.00;1.75;;;;;;;;5091244;27;47284;-69
2022/04/11 11:08:10;;;;;;;;;1.00;1.00;;;;;;;;5081090;27;45380;-69
2022/04/11 11:10:41;;;;;;;;;2.00;2.00;;;;;;;;5095379;27;45305;-68
2022/04/11 11:13:27;;;;;;;;;1.00;1.00;;;;;;;;5097241;27;45336;-68
2022/04/11 11:16:00;;;;;;;;;2.00;2.00;;;;;;;;5093973;27;46465;-69
2022/04/11 11:18:26;;;;;;;;;1.50;1.50;;;;;;;;5094844;27;45660;-69
2022/04/11 11:20:56;;;;;;;;;1.75;1.75;;;;;;;;5095243;27;45545;-68
2022/04/11 11:23:31;;;;;;;;;1.75;1.50;;;;;;;;5094337;27;45353;-68
2022/04/11 11:26:06;;;;;;;;;1.00;1.00;;;;;;;;5094497;27;46593;-69
2022/04/11 11:28:31;;;;;;;;;1.50;1.50;;;;;;;;5093567;27;45370;-68
2022/04/11 11:30:56;;;;;;;;;2.25;2.25;;;;;;;;5097301;27;45301;-68
2022/04/11 11:33:22;;;;;;;;;1.00;1.00;;;;;;;;5094168;27;45532;-68
2022/04/11 11:35:51;;;;;;;;;2.00;2.00;;;;;;;;5085378;27;45456;-69
2022/04/11 11:38:20;;;;;;;;;2.00;1.00;;;;;;;;5093498;27;45288;-69
2022/04/11 11:41:01;;;;;;;;;2.75;1.00;;;;;;;;5094658;27;45303;-68
2022/04/11 11:43:28;;;;;;;;;1.00;1.00;;;;;;;;5091892;27;45312;-69
2022/04/11 11:46:03;;;;;;;;;1.00;1.00;;;;;;;;5094671;27;46315;-69
2022/04/11 11:48:29;;;;;;;;;2.00;1.50;;;;;;;;5094285;27;45469;-68
2022/04/11 11:50:55;;;;;;;;;0.00;0.00;;;;;;;;5095559;27;45351;-69
2022/04/11 11:53:21;;;;;;;;;2.00;2.00;;;;;;;;5095879;27;45516;-69
2022/04/11 11:56:07;;;;;;;;;4.00;2.25;;;;;;;;5094032;27;45350;-68
2022/04/11 11:58:41;;;;;;;;;3.50;2.50;;;;;;;;5092533;27;45485;-69
2022/04/11 12:01:11;;;;;;;;;2.00;2.00;;;;;;;;5096087;27;45423;-68
2022/04/11 12:06:24;;;;;;;;;1.50;1.50;;;;;;;;5092419;27;45573;-69
2022/04/11 12:08:53;;;;;;;;;2.00;2.00;;;;;;;;5083995;27;45403;-69
2022/04/11 12:11:19;;;;;;;;;1.00;1.00;;;;;;;;5094497;27;45430;-69
2022/04/11 12:13:44;;;;;;;;;2.00;1.75;;;;;;;;5095804;27;45303;-68
2022/04/11 12:16:10;;;;;;;;;1.50;1.25;;;;;;;;5096088;27;46375;-69
2022/04/11 12:18:54;;;;;;;;;1.25;1.25;;;;;;;;5093353;27;45383;-68
2022/04/11 12:21:32;;;;;;;;;4.00;2.00;;;;;;;;5092291;27;45516;-68
2022/04/11 12:23:57;;;;;;;;;1.50;1.50;;;;;;;;5094220;27;45564;-69
2022/04/11 12:26:26;;;;;;;;;3.00;1.00;;;;;;;;5085257;27;46290;-69
2022/04/11 12:28:52;;;;;;;;;2.00;2.00;;;;;;;;5094650;27;45294;-69
2022/04/11 12:31:18;;;;;;;;;2.00;2.00;;;;;;;;5095255;27;45497;-68
2022/04/11 12:33:46;;;;;;;;;1.00;1.00;;;;;;;;5094066;27;45371;-69
2022/04/11 12:36:16;;;;;;;;;1.00;1.00;;;;;;;;5091515;27;45506;-69
2022/04/11 12:38:41;;;;;;;;;2.50;2.50;;;;;;;;5093854;27;45376;-69
2022/04/11 12:41:09;;;;;;;;;2.25;2.00;;;;;;;;5092964;27;45478;-69
2022/04/11 12:43:54;;;;;;;;;1.00;1.00;;;;;;;;5095606;27;45438;-69
2022/04/11 12:46:23;;;;;;;;;1.00;1.00;;;;;;;;5095495;27;46638;-69
2022/04/11 12:48:56;;;;;;;;;1.00;1.00;;;;;;;;5093689;27;45494;-68
2022/04/11 12:51:21;;;;;;;;;2.00;1.75;;;;;;;;5093547;27;45366;-69
2022/04/11 12:53:46;;;;;;;;;1.50;1.25;;;;;;;;5093921;27;45292;-69
2022/04/11 12:56:11;;;;;;;;;4.50;2.50;;;;;;;;5095230;27;46080;-69
2022/04/11 12:58:37;;;;;;;;;1.50;1.50;;;;;;;;5095762;27;45319;-69
2022/04/11 13:01:02;;;;;;;;;1.25;1.25;;;;;;;;5095001;27;45499;-68
2022/04/11 13:03:28;;;;;;;;;2.50;1.50;;;;;;;;5095533;27;45274;-69
2022/04/11 13:05:54;;;;;;;;;2.75;1.50;;;;;;;;5094284;27;45388;-68
2022/04/11 13:08:19;;;;;;;;;1.25;1.00;;;;;;;;5091564;27;45435;-69
2022/04/11 13:10:44;;;;;;;;;2.00;1.00;;;;;;;;5093683;27;45346;-68
2022/04/11 13:13:09;;;;;;;;;3.00;3.00;;;;;;;;5095878;27;45291;-68
2022/04/11 13:18:23;;;;;;;;;5.00;2.00;;;;;;;;5091905;27;46552;-68
2022/04/11 13:18:26;;;;;;;;;1.50;1.50;;;;;;;;5091758;27;45416;-69
2022/04/11 13:20:51;;;;;;;;;3.00;3.00;;;;;;;;5093186;27;45349;-69
2022/04/11 13:23:17;;;;;;;;;2.75;2.75;;;;;;;;5093749;27;45358;-69
2022/04/11 13:25:42;;;;;;;;;2.00;2.00;;;;;;;;5093791;27;46547;-69
2022/04/11 13:28:09;;;;;;;;;3.00;2.00;;;;;;;;5095049;27;45455;-69
2022/04/11 13:30:35;;;;;;;;;3.00;3.00;;;;;;;;5092514;27;45537;-69
2022/04/11 13:33:00;;;;;;;;;3.00;2.50;;;;;;;;5093469;27;45268;-69
2022/04/11 13:35:25;;;;;;;;;2.00;2.00;;;;;;;;5096641;27;45488;-68
2022/04/11 13:37:50;;;;;;;;;2.00;2.00;;;;;;;;5097710;27;45524;-69
2022/04/11 13:40:15;;;;;;;;;1.50;1.50;;;;;;;;5099037;27;45522;-68
2022/04/11 13:42:41;;;;;;;;;1.25;1.25;;;;;;;;5096906;27;45557;-68
2022/04/11 13:45:06;;;;;;;;;2.00;2.00;;;;;;;;5096485;27;46199;-69
2022/04/11 13:47:31;;;;;;;;;3.00;2.00;;;;;;;;5097227;27;45443;-68
2022/04/11 13:49:57;;;;;;;;;1.25;1.25;;;;;;;;5097029;27;45231;-69
2022/04/11 13:52:22;;;;;;;;;3.00;2.50;;;;;;;;5098755;27;45635;-68
2022/04/11 13:54:47;;;;;;;;;1.00;1.00;;;;;;;;5095729;27;45390;-68
2022/04/11 13:57:13;;;;;;;;;1.00;1.00;;;;;;;;5094085;27;45687;-69
2022/04/11 13:59:40;;;;;;;;;2.50;2.00;;;;;;;;5096241;27;45470;-69
2022/04/11 14:02:08;;;;;;;;;3.50;2.00;;;;;;;;5096878;27;45268;-69
2022/04/11 14:04:33;;;;;;;;;2.75;2.75;;;;;;;;5097808;27;46384;-69
2022/04/11 14:06:58;;;;;;;;;1.50;1.50;;;;;;;;5097251;27;45269;-68
2022/04/11 14:09:24;;;;;;;;;2.50;2.50;;;;;;;;5094293;27;45415;-69
2022/04/11 14:11:49;;;;;;;;;1.50;1.00;;;;;;;;5094517;27;45284;-69
2022/04/11 14:14:14;;;;;;;;;1.00;1.00;;;;;;;;5093469;27;46181;-69
2022/04/11 14:16:39;;;;;;;;;1.75;1.75;;;;;;;;5097362;27;45322;-69
2022/04/11 14:19:04;;;;;;;;;1.00;1.00;;;;;;;;5096054;27;45438;-69
2022/04/11 14:21:30;;;;;;;;;2.50;2.50;;;;;;;;5093816;27;45315;-69
2022/04/11 14:23:55;;;;;;;;;1.00;1.00;;;;;;;;5093819;27;46526;-68
2022/04/11 14:26:20;;;;;;;;;3.50;2.00;;;;;;;;5095853;27;45475;-69
2022/04/11 14:28:46;;;;;;;;;3.00;2.50;;;;;;;;5096410;27;45399;-68
2022/04/11 14:31:12;;;;;;;;;2.25;2.25;;;;;;;;5098551;27;45516;-68
2022/04/11 14:33:38;;;;;;;;;2.00;2.00;;;;;;;;5095682;27;45601;-69
2022/04/11 14:36:03;;;;;;;;;2.00;2.00;;;;;;;;5095903;27;45587;-69
2022/04/11 14:38:28;;;;;;;;;2.50;2.50;;;;;;;;5096560;27;45588;-69
2022/04/11 14:40:54;;;;;;;;;2.00;1.50;;;;;;;;5095395;27;45582;-68
2022/04/11 14:43:20;;;;;;;;;1.00;1.00;;;;;;;;5098288;27;45419;-69